createdAt,value
2018-02-16T00:01:40.979Z,14.52
2018-02-16T00:04:07.579Z,14.56
2018-02-16T00:06:34.210Z,14.50
2018-02-16T00:09:00.771Z,14.58
2018-02-16T00:11:27.346Z,14.56
2018-02-16T00:13:53.932Z,14.63
2018-02-16T00:16:20.557Z,14.67
2018-02-16T00:18:47.114Z,14.61
2018-02-16T00:21:13.677Z,14.63
2018-02-16T00:23:40.291Z,14.62
2018-02-16T00:26:06.865Z,14.61
2018-02-16T00:28:33.468Z,14.58
2018-02-16T00:31:00.036Z,14.57
2018-02-16T00:33:26.629Z,14.57
2018-02-16T00:35:53.159Z,14.56
2018-02-16T00:38:19.734Z,14.56
2018-02-16T00:40:46.300Z,14.56
2018-02-16T00:43:12.927Z,14.54
2018-02-16T00:45:39.493Z,14.56
2018-02-16T00:48:06.083Z,14.58
2018-02-16T00:50:32.666Z,14.57
2018-02-16T00:52:59.328Z,14.59
2018-02-16T00:55:25.934Z,14.61
2018-02-16T00:57:52.573Z,14.60
2018-02-16T01:00:19.177Z,14.64
2018-02-16T01:02:45.780Z,14.62
2018-02-16T01:05:12.343Z,14.64
2018-02-16T01:07:38.917Z,14.63
2018-02-16T01:10:05.551Z,14.65
2018-02-16T01:12:32.118Z,14.64
2018-02-16T01:14:58.764Z,14.68
2018-02-16T01:17:25.344Z,14.76
2018-02-16T01:19:52.081Z,14.74
2018-02-16T01:22:18.655Z,14.76
2018-02-16T01:24:45.274Z,14.74
2018-02-16T01:27:11.882Z,14.73
2018-02-16T01:29:38.564Z,14.77
2018-02-16T01:32:05.189Z,14.77
2018-02-16T01:34:31.770Z,14.76
2018-02-16T01:36:58.453Z,14.75
2018-02-16T01:39:25.047Z,14.77
2018-02-16T01:41:51.683Z,14.79
2018-02-16T01:44:18.273Z,14.80
2018-02-16T01:46:44.911Z,14.78
2018-02-16T01:49:11.476Z,14.82
2018-02-16T01:51:38.057Z,14.80
2018-02-16T01:54:04.650Z,14.83
2018-02-16T01:56:31.222Z,14.83
2018-02-16T01:58:57.847Z,14.85
2018-02-16T02:01:24.408Z,14.84
2018-02-16T02:03:51.015Z,14.88
2018-02-16T02:06:17.663Z,14.89
2018-02-16T02:08:44.515Z,14.90
2018-02-16T02:11:11.172Z,14.88
2018-02-16T02:13:37.780Z,14.90
2018-02-16T02:16:04.372Z,14.89
2018-02-16T02:18:30.984Z,14.90
2018-02-16T02:20:57.558Z,14.90
2018-02-16T02:23:24.196Z,14.90
2018-02-16T02:25:50.769Z,14.92
2018-02-16T02:28:17.366Z,14.91
2018-02-16T02:30:43.954Z,14.91
2018-02-16T02:33:10.548Z,14.94
2018-02-16T02:35:37.191Z,14.95
2018-02-16T02:38:03.767Z,14.97
2018-02-16T02:40:30.356Z,14.96
2018-02-16T02:42:56.917Z,15.00
2018-02-16T02:45:23.562Z,15.00
2018-02-16T02:47:50.164Z,15.07
2018-02-16T02:50:16.725Z,15.07
2018-02-16T02:52:43.302Z,15.08
2018-02-16T02:55:09.923Z,15.08
2018-02-16T02:57:36.563Z,15.07
2018-02-16T03:00:03.140Z,15.05
2018-02-16T03:02:29.775Z,15.04
2018-02-16T03:04:56.354Z,15.05
2018-02-16T03:07:22.972Z,15.06
2018-02-16T03:09:49.578Z,15.02
2018-02-16T03:12:16.157Z,15.04
2018-02-16T03:14:42.763Z,15.05
2018-02-16T03:17:09.398Z,15.07
2018-02-16T03:19:36.006Z,15.07
2018-02-16T03:22:02.589Z,15.07
2018-02-16T03:24:29.239Z,15.04
2018-02-16T03:26:55.881Z,15.07
2018-02-16T03:29:22.491Z,15.08
2018-02-16T03:31:49.077Z,15.10
2018-02-16T03:34:15.652Z,15.10
2018-02-16T03:36:42.281Z,15.11
2018-02-16T03:39:08.874Z,15.12
2018-02-16T03:41:35.438Z,15.15
2018-02-16T03:44:02.015Z,15.19
2018-02-16T03:46:28.672Z,15.25
2018-02-16T03:48:55.279Z,15.21
2018-02-16T03:51:21.885Z,15.25
2018-02-16T03:53:48.449Z,15.26
2018-02-16T03:56:15.040Z,15.23
2018-02-16T03:58:41.613Z,15.21
2018-02-16T04:01:08.264Z,15.22
2018-02-16T04:03:34.865Z,15.23
2018-02-16T04:06:01.490Z,15.23
2018-02-16T04:08:28.106Z,15.30
2018-02-16T04:10:54.743Z,15.62
2018-02-16T04:13:21.326Z,16.29
2018-02-16T04:15:47.944Z,16.57
2018-02-16T04:18:14.575Z,16.87
2018-02-16T04:20:41.145Z,16.97
2018-02-16T04:23:07.712Z,17.15
2018-02-16T04:25:34.285Z,17.03
2018-02-16T04:28:00.850Z,17.09
2018-02-16T04:30:27.420Z,16.92
2018-02-16T04:32:53.989Z,16.20
2018-02-16T04:35:20.570Z,16.00
2018-02-16T04:37:47.163Z,15.85
2018-02-16T04:40:13.797Z,15.82
2018-02-16T04:42:40.352Z,15.76
2018-02-16T04:45:06.964Z,15.71
2018-02-16T04:47:33.534Z,15.68
2018-02-16T04:50:00.109Z,15.68
2018-02-16T04:52:26.669Z,15.65
2018-02-16T04:54:53.248Z,15.65
2018-02-16T04:57:19.831Z,15.64
2018-02-16T04:59:46.439Z,15.63
2018-02-16T05:02:13.009Z,15.57
2018-02-16T05:04:39.598Z,15.63
2018-02-16T05:07:06.233Z,15.67
2018-02-16T05:09:32.909Z,15.61
2018-02-16T05:11:59.481Z,15.66
2018-02-16T05:14:26.056Z,15.69
2018-02-16T05:16:52.664Z,15.67
2018-02-16T05:19:19.251Z,15.62
2018-02-16T05:21:45.833Z,16.05
2018-02-16T05:24:12.414Z,15.77
2018-02-16T05:26:39.073Z,15.80
2018-02-16T05:29:05.650Z,15.84
2018-02-16T05:31:32.286Z,15.90
2018-02-16T05:33:58.851Z,15.92
2018-02-16T05:36:25.506Z,15.88
2018-02-16T05:38:52.051Z,15.89
2018-02-16T05:41:18.676Z,16.03
2018-02-16T05:43:45.307Z,15.97
2018-02-16T05:46:11.919Z,16.04
2018-02-16T05:48:38.552Z,16.11
2018-02-16T05:51:05.115Z,16.14
2018-02-16T05:53:31.687Z,16.06
2018-02-16T05:55:58.253Z,16.06
2018-02-16T05:58:24.807Z,16.22
2018-02-16T06:00:51.421Z,16.24
2018-02-16T06:03:18.025Z,16.44
2018-02-16T06:05:44.587Z,16.74
2018-02-16T06:08:11.158Z,16.87
2018-02-16T06:10:37.763Z,16.95
2018-02-16T06:13:04.379Z,16.84
2018-02-16T06:15:30.967Z,16.63
2018-02-16T06:17:57.539Z,16.64
2018-02-16T06:20:24.119Z,16.71
2018-02-16T06:22:50.694Z,16.75
2018-02-16T06:25:17.337Z,16.81
2018-02-16T06:27:43.956Z,16.83
2018-02-16T06:30:10.561Z,16.83
2018-02-16T06:32:37.160Z,17.06
2018-02-16T06:35:03.736Z,16.73
2018-02-16T06:37:30.629Z,16.65
2018-02-16T06:39:57.245Z,16.70
2018-02-16T06:42:23.864Z,16.71
2018-02-16T06:44:50.591Z,16.63
2018-02-16T06:47:17.203Z,16.69
2018-02-16T06:49:43.873Z,16.74
2018-02-16T06:52:11.688Z,16.83
2018-02-16T06:54:37.424Z,16.77
2018-02-16T06:57:04.107Z,16.85
2018-02-16T06:59:30.813Z,17.22
2018-02-16T07:01:57.468Z,17.10
2018-02-16T07:04:24.057Z,17.09
2018-02-16T07:06:50.689Z,17.32
2018-02-16T07:09:17.260Z,17.47
2018-02-16T07:11:43.933Z,17.24
2018-02-16T07:14:10.528Z,17.39
2018-02-16T07:16:37.181Z,17.42
2018-02-16T07:19:03.738Z,17.44
2018-02-16T07:21:30.410Z,17.42
2018-02-16T07:23:58.329Z,17.38
2018-02-16T07:26:24.951Z,17.56
2018-02-16T07:28:51.533Z,17.64
2018-02-16T07:31:19.085Z,17.65
2018-02-16T07:33:45.652Z,17.77
2018-02-16T07:36:12.261Z,17.68
2018-02-16T07:38:39.104Z,17.77
2018-02-16T07:41:05.743Z,17.75
2018-02-16T07:43:32.387Z,17.75
2018-02-16T07:45:59.037Z,17.67
2018-02-16T07:48:25.689Z,17.55
2018-02-16T07:50:52.290Z,17.61
2018-02-16T07:53:18.870Z,17.83
2018-02-16T07:55:45.529Z,17.88
2018-02-16T07:58:12.130Z,18.12
2018-02-16T08:00:38.743Z,18.06
2018-02-16T08:03:05.402Z,18.23
2018-02-16T08:05:32.053Z,18.00
2018-02-16T08:07:58.622Z,18.00
2018-02-16T08:10:25.214Z,17.93
2018-02-16T08:12:51.814Z,17.89
2018-02-16T08:15:18.649Z,17.99
2018-02-16T08:17:45.237Z,18.03
2018-02-16T08:20:12.068Z,17.98
2018-02-16T08:22:38.687Z,17.92
2018-02-16T08:25:05.292Z,18.15
2018-02-16T08:27:31.903Z,18.17
2018-02-16T08:29:58.503Z,18.05
2018-02-16T08:32:25.178Z,18.15
2018-02-16T08:34:51.844Z,17.91
2018-02-16T08:37:18.678Z,18.09
2018-02-16T08:39:45.315Z,18.23
2018-02-16T08:42:11.955Z,18.15
2018-02-16T08:44:38.528Z,17.91
2018-02-16T08:47:05.117Z,17.89
2018-02-16T08:49:31.706Z,18.06
2018-02-16T08:51:58.282Z,18.01
2018-02-16T08:54:24.967Z,17.98
2018-02-16T08:56:51.561Z,18.00
2018-02-16T08:59:18.154Z,17.95
2018-02-16T09:01:44.821Z,17.87
2018-02-16T09:04:11.732Z,17.78
2018-02-16T09:06:38.711Z,18.25
2018-02-16T09:09:05.277Z,17.69
2018-02-16T09:13:37.137Z,26.67
2018-02-16T09:18:00.434Z,17.55
2018-02-16T09:20:27.040Z,19.36
2018-02-16T09:22:53.663Z,17.10
2018-02-16T09:25:20.234Z,17.38
2018-02-16T09:27:46.867Z,17.42
2018-02-16T09:30:13.695Z,17.44
2018-02-16T09:32:40.256Z,17.11
2018-02-16T09:35:06.880Z,17.10
2018-02-16T09:37:36.304Z,17.37
2018-02-16T09:40:02.842Z,17.23
2018-02-16T09:42:29.430Z,17.83
2018-02-16T09:44:56.096Z,17.53
2018-02-16T09:47:22.653Z,17.38
2018-02-16T09:49:49.307Z,17.52
2018-02-16T09:52:15.993Z,17.76
2018-02-16T09:54:42.636Z,17.25
2018-02-16T09:57:09.198Z,17.10
2018-02-16T09:59:35.823Z,17.20
2018-02-16T10:02:02.469Z,17.20
2018-02-16T10:04:29.021Z,17.17
2018-02-16T10:06:55.649Z,17.13
2018-02-16T10:09:22.286Z,17.14
2018-02-16T10:11:48.915Z,17.03
2018-02-16T10:14:15.557Z,17.02
2018-02-16T10:16:42.586Z,16.88
2018-02-16T10:19:09.247Z,16.83
2018-02-16T10:21:35.854Z,16.85
2018-02-16T10:24:02.488Z,16.86
2018-02-16T10:26:29.160Z,16.79
2018-02-16T10:28:55.948Z,16.75
2018-02-16T10:31:22.614Z,16.69
2018-02-16T10:33:49.208Z,16.65
2018-02-16T10:36:15.826Z,16.69
2018-02-16T10:38:42.365Z,16.64
2018-02-16T10:41:09.045Z,16.64
2018-02-16T10:43:35.698Z,16.55
2018-02-16T10:46:02.330Z,16.61
2018-02-16T10:48:28.978Z,16.53
2018-02-16T10:50:55.615Z,16.55
2018-02-16T10:53:22.308Z,16.81
2018-02-16T10:55:49.080Z,16.69
2018-02-16T10:58:15.669Z,16.56
2018-02-16T11:00:42.351Z,16.92
2018-02-16T11:03:09.120Z,17.29
2018-02-16T11:05:35.720Z,17.04
2018-02-16T11:08:02.345Z,17.35
2018-02-16T11:10:29.013Z,17.48
2018-02-16T11:12:55.617Z,17.54
2018-02-16T11:15:22.206Z,17.66
2018-02-16T11:17:48.934Z,17.60
2018-02-16T11:20:15.927Z,17.59
2018-02-16T11:22:42.451Z,17.69
2018-02-16T11:25:09.134Z,17.50
2018-02-16T11:27:35.708Z,17.45
2018-02-16T11:30:02.314Z,17.89
2018-02-16T11:32:29.074Z,18.06
2018-02-16T11:34:55.702Z,17.96
2018-02-16T11:37:22.348Z,17.63
2018-02-16T11:39:48.946Z,17.99
2018-02-16T11:42:15.654Z,17.90
2018-02-16T11:44:42.257Z,18.04
2018-02-16T11:47:08.857Z,18.03
2018-02-16T11:49:35.493Z,18.17
2018-02-16T11:52:03.206Z,18.05
2018-02-16T11:54:29.790Z,17.87
2018-02-16T11:56:56.535Z,18.02
2018-02-16T11:59:23.221Z,17.90
2018-02-16T12:01:49.867Z,18.06
2018-02-16T12:04:16.456Z,18.16
2018-02-16T12:06:43.047Z,18.01
2018-02-16T12:09:09.647Z,18.17
2018-02-16T12:11:36.314Z,18.11
2018-02-16T12:14:02.923Z,18.17
2018-02-16T12:16:29.525Z,18.11
2018-02-16T12:18:56.128Z,18.12
2018-02-16T12:21:22.723Z,18.17
2018-02-16T12:23:49.301Z,18.32
2018-02-16T12:26:15.870Z,18.33
2018-02-16T12:28:42.575Z,18.31
2018-02-16T12:31:09.226Z,18.14
2018-02-16T12:33:35.812Z,18.25
2018-02-16T12:36:02.495Z,18.22
2018-02-16T12:38:29.127Z,18.28
2018-02-16T12:40:56.752Z,18.34
2018-02-16T12:43:23.452Z,18.12
2018-02-16T12:45:50.028Z,18.19
2018-02-16T12:48:16.718Z,18.11
2018-02-16T12:50:43.323Z,18.13
2018-02-16T12:53:09.994Z,18.15
2018-02-16T12:55:36.681Z,18.29
2018-02-16T12:58:03.303Z,18.32
2018-02-16T13:00:45.040Z,18.37
2018-02-16T13:03:11.629Z,18.40
2018-02-16T13:05:38.291Z,18.51
2018-02-16T13:08:04.854Z,18.41
2018-02-16T13:10:31.435Z,18.18
2018-02-16T13:12:58.151Z,18.42
2018-02-16T13:15:24.886Z,18.29
2018-02-16T13:17:51.573Z,18.50
2018-02-16T13:20:18.437Z,19.37
2018-02-16T13:22:45.068Z,18.48
2018-02-16T13:25:11.689Z,18.42
2018-02-16T13:27:38.304Z,18.63
2018-02-16T13:30:04.994Z,18.72
2018-02-16T13:32:31.562Z,18.77
2018-02-16T13:34:58.181Z,18.65
2018-02-16T13:37:24.829Z,18.63
2018-02-16T13:39:51.574Z,18.63
2018-02-16T13:42:18.304Z,18.64
2018-02-16T13:44:44.977Z,18.80
2018-02-16T13:47:11.703Z,18.72
2018-02-16T13:49:38.428Z,18.70
2018-02-16T13:52:05.038Z,18.60
2018-02-16T13:54:32.012Z,18.67
2018-02-16T13:56:58.664Z,18.85
2018-02-16T13:59:25.267Z,19.10
2018-02-16T14:01:52.003Z,19.22
2018-02-16T14:04:18.580Z,19.11
2018-02-16T14:06:45.307Z,19.05
2018-02-16T14:09:11.917Z,18.95
2018-02-16T14:11:38.548Z,19.19
2018-02-16T14:14:05.168Z,19.17
2018-02-16T14:16:31.759Z,19.04
2018-02-16T14:18:58.395Z,19.03
2018-02-16T14:21:24.994Z,19.13
2018-02-16T14:23:51.643Z,18.94
2018-02-16T14:26:18.581Z,19.07
2018-02-16T14:28:45.181Z,19.25
2018-02-16T14:31:11.800Z,19.23
2018-02-16T14:33:38.499Z,19.08
2018-02-16T14:36:05.127Z,19.92
2018-02-16T14:38:31.743Z,19.09
2018-02-16T14:40:58.455Z,18.44
2018-02-16T14:43:27.062Z,18.91
2018-02-16T14:45:53.772Z,18.95
2018-02-16T14:48:20.405Z,19.05
2018-02-16T14:50:47.011Z,19.05
2018-02-16T14:53:13.698Z,19.22
2018-02-16T14:55:40.424Z,19.43
2018-02-16T14:58:07.049Z,19.27
2018-02-16T15:00:33.645Z,19.23
2018-02-16T15:03:00.359Z,19.22
2018-02-16T15:05:26.927Z,19.29
2018-02-16T15:07:53.596Z,19.11
2018-02-16T15:10:20.236Z,19.41
2018-02-16T15:12:46.844Z,19.44
2018-02-16T15:15:13.517Z,19.45
2018-02-16T15:17:40.144Z,19.29
2018-02-16T15:20:06.680Z,19.31
2018-02-16T15:29:37.824Z,19.70
2018-02-16T15:33:42.405Z,19.14
2018-02-16T15:36:09.031Z,19.60
2018-02-16T15:38:35.671Z,19.56
2018-02-16T15:41:02.268Z,19.59
2018-02-16T15:43:28.879Z,19.64
2018-02-16T15:45:55.445Z,19.38
2018-02-16T15:48:22.024Z,19.72
2018-02-16T15:50:48.668Z,19.83
2018-02-16T15:53:15.304Z,19.62
2018-02-16T15:55:41.870Z,19.59
2018-02-16T15:58:09.632Z,19.84
2018-02-16T16:00:36.214Z,20.05
2018-02-16T16:03:02.857Z,20.17
2018-02-16T16:05:29.430Z,20.21
2018-02-16T16:07:56.041Z,20.14
2018-02-16T16:10:22.640Z,20.12
2018-02-16T16:12:49.242Z,19.97
2018-02-16T16:15:15.839Z,19.96
2018-02-16T16:17:42.403Z,19.90
2018-02-16T16:20:09.005Z,19.81
2018-02-16T16:22:35.576Z,19.83
2018-02-16T16:25:02.192Z,19.78
2018-02-16T16:27:28.760Z,19.69
2018-02-16T16:29:55.389Z,19.62
2018-02-16T16:32:21.953Z,19.73
2018-02-16T16:34:48.557Z,19.71
2018-02-16T16:37:15.189Z,19.65
2018-02-16T16:39:41.809Z,19.69
2018-02-16T16:42:08.414Z,19.69
2018-02-16T16:44:35.026Z,19.64
2018-02-16T16:47:01.688Z,19.61
2018-02-16T16:49:28.260Z,19.63
2018-02-16T16:51:56.878Z,19.60
2018-02-16T16:54:23.524Z,19.46
2018-02-16T16:56:50.082Z,19.54
2018-02-16T16:59:16.691Z,19.28
2018-02-16T17:01:43.271Z,19.35
2018-02-16T17:04:09.886Z,19.45
2018-02-16T17:06:36.494Z,19.44
2018-02-16T17:09:03.062Z,19.45
2018-02-16T17:11:29.678Z,19.45
2018-02-16T17:13:56.283Z,19.17
2018-02-16T17:16:22.853Z,19.46
2018-02-16T17:18:49.492Z,19.42
2018-02-16T17:21:16.099Z,19.40
2018-02-16T17:23:42.701Z,19.25
2018-02-16T17:26:09.299Z,19.29
2018-02-16T17:28:35.953Z,19.22
2018-02-16T17:31:02.565Z,19.34
2018-02-16T17:33:29.165Z,19.29
2018-02-16T17:35:55.732Z,19.27
2018-02-16T17:38:22.342Z,19.29
2018-02-16T17:40:48.910Z,19.25
2018-02-16T17:43:15.501Z,19.23
2018-02-16T17:45:42.159Z,19.21
2018-02-16T17:48:08.734Z,19.21
2018-02-16T17:50:35.293Z,19.22
2018-02-16T17:53:01.910Z,19.17
2018-02-16T17:55:28.470Z,19.14
2018-02-16T17:57:55.074Z,19.13
2018-02-16T18:00:21.692Z,19.12
2018-02-16T18:02:48.352Z,19.08
2018-02-16T18:05:14.954Z,19.09
2018-02-16T18:07:41.514Z,19.09
2018-02-16T18:10:08.123Z,19.08
2018-02-16T18:12:34.733Z,18.97
2018-02-16T18:15:01.305Z,19.02
2018-02-16T18:17:27.943Z,19.08
2018-02-16T18:19:54.489Z,18.81
2018-02-16T18:22:21.102Z,18.81
2018-02-16T18:24:47.677Z,18.85
2018-02-16T18:27:14.288Z,18.98
2018-02-16T18:29:40.853Z,19.02
2018-02-16T18:32:07.442Z,19.03
2018-02-16T18:34:34.074Z,19.06
2018-02-16T18:37:00.669Z,19.03
2018-02-16T18:39:27.244Z,19.02
2018-02-16T18:41:53.867Z,19.05
2018-02-16T18:44:20.548Z,18.95
2018-02-16T18:49:54.965Z,19.10
2018-02-16T18:52:25.151Z,19.07
2018-02-16T18:54:51.721Z,19.04
2018-02-16T18:57:18.329Z,18.99
2018-02-16T18:59:44.961Z,19.02
2018-02-16T19:02:11.590Z,19.02
2018-02-16T19:04:38.242Z,18.99
2018-02-16T19:07:04.837Z,19.00
2018-02-16T19:09:31.441Z,18.98
2018-02-16T19:11:58.072Z,19.00
2018-02-16T19:14:24.649Z,18.97
2018-02-16T19:16:51.209Z,18.92
2018-02-16T19:19:17.817Z,18.92
2018-02-16T19:21:44.450Z,18.92
2018-02-16T19:24:11.142Z,18.85
2018-02-16T19:26:37.708Z,18.87
2018-02-16T19:29:04.309Z,18.81
2018-02-16T19:31:30.933Z,18.84
2018-02-16T19:33:57.502Z,18.85
2018-02-16T19:36:24.069Z,18.83
2018-02-16T19:38:50.779Z,18.82
2018-02-16T19:41:17.347Z,18.80
2018-02-16T19:43:44.069Z,18.77
2018-02-16T19:46:10.670Z,18.80
2018-02-16T19:48:37.294Z,18.72
2018-02-16T19:51:03.927Z,18.71
2018-02-16T19:53:30.485Z,18.76
2018-02-16T19:55:57.045Z,18.77
2018-02-16T19:58:23.648Z,18.69
2018-02-16T20:00:50.385Z,18.71
2018-02-16T20:03:17.014Z,18.72
2018-02-16T20:05:43.580Z,18.73
2018-02-16T20:08:10.230Z,18.74
2018-02-16T20:10:36.847Z,18.72
2018-02-16T20:13:03.413Z,18.72
2018-02-16T20:15:30.026Z,18.68
2018-02-16T20:17:56.619Z,18.73
2018-02-16T20:20:23.278Z,18.66
2018-02-16T20:22:49.870Z,18.66
2018-02-16T20:25:16.433Z,18.66
2018-02-16T20:27:43.061Z,18.63
2018-02-16T20:30:09.638Z,18.62
2018-02-16T20:32:36.262Z,18.61
2018-02-16T20:35:02.896Z,18.55
2018-02-16T20:37:29.487Z,18.58
2018-02-16T20:39:56.099Z,18.54
2018-02-16T20:42:22.678Z,18.53
2018-02-16T20:44:49.375Z,18.54
2018-02-16T20:47:15.942Z,18.50
2018-02-16T20:49:42.543Z,18.55
2018-02-16T20:52:09.170Z,18.49
2018-02-16T20:54:35.794Z,18.54
2018-02-16T20:57:02.397Z,18.48
2018-02-16T20:59:28.971Z,18.45
2018-02-16T21:01:55.592Z,18.47
2018-02-16T21:04:22.191Z,18.46
2018-02-16T21:06:48.778Z,18.46
2018-02-16T21:09:15.397Z,18.48
2018-02-16T21:11:41.967Z,18.48
2018-02-16T21:14:08.622Z,18.43
2018-02-16T21:16:35.245Z,18.48
2018-02-16T21:19:01.832Z,18.50
2018-02-16T21:21:28.434Z,18.48
2018-02-16T21:23:55.042Z,18.47
2018-02-16T21:26:21.608Z,18.47
2018-02-16T21:28:48.327Z,18.43
2018-02-16T21:31:14.986Z,18.46
2018-02-16T21:33:41.593Z,18.43
2018-02-16T21:36:08.198Z,18.40
2018-02-16T21:38:34.815Z,18.42
2018-02-16T21:41:01.433Z,18.40
2018-02-16T21:43:27.997Z,18.43
2018-02-16T21:45:54.600Z,18.36
2018-02-16T21:48:21.235Z,18.36
2018-02-16T21:50:47.798Z,18.35
2018-02-16T21:53:14.529Z,18.30
2018-02-16T21:55:41.125Z,18.31
2018-02-16T21:58:07.871Z,18.29
2018-02-16T22:00:34.618Z,18.31
2018-02-16T22:03:01.209Z,18.29
2018-02-16T22:05:27.834Z,18.32
2018-02-16T22:07:54.445Z,18.28
2018-02-16T22:10:21.023Z,18.27
2018-02-16T22:12:47.626Z,18.27
2018-02-16T22:15:14.237Z,18.23
2018-02-16T22:17:40.933Z,18.26
2018-02-16T22:20:07.520Z,18.24
2018-02-16T22:22:34.076Z,18.27
2018-02-16T22:25:00.677Z,18.27
2018-02-16T22:27:27.308Z,18.20
2018-02-16T22:29:53.882Z,18.21
2018-02-16T22:32:20.446Z,18.25
2018-02-16T22:34:47.059Z,18.23
2018-02-16T22:37:13.717Z,18.22
2018-02-16T22:39:40.332Z,18.17
2018-02-16T22:42:06.956Z,18.20
2018-02-16T22:44:33.536Z,18.23
2018-02-16T22:47:00.162Z,18.16
2018-02-16T22:49:26.745Z,18.15
2018-02-16T22:51:53.318Z,18.17
2018-02-16T22:54:19.938Z,18.15
2018-02-16T22:56:46.587Z,18.20
2018-02-16T22:59:13.261Z,18.18
2018-02-16T23:01:39.908Z,18.17
2018-02-16T23:04:06.497Z,18.07
2018-02-16T23:06:33.067Z,18.14
2018-02-16T23:08:59.688Z,18.14
2018-02-16T23:11:26.253Z,18.12
2018-02-16T23:13:52.859Z,18.11
2018-02-16T23:16:19.494Z,18.16
2018-02-16T23:18:46.082Z,18.11
2018-02-16T23:21:12.676Z,18.11
2018-02-16T23:23:39.292Z,18.10
2018-02-16T23:26:05.856Z,18.07
2018-02-16T23:28:32.422Z,18.07
2018-02-16T23:30:59.032Z,18.08
2018-02-16T23:33:25.589Z,18.08
2018-02-16T23:35:52.194Z,18.10
2018-02-16T23:38:18.764Z,18.06
2018-02-16T23:40:45.398Z,18.05
2018-02-16T23:43:11.976Z,18.08
2018-02-16T23:45:38.602Z,18.05
2018-02-16T23:48:05.232Z,18.04
2018-02-16T23:50:31.880Z,18.07
2018-02-16T23:52:58.452Z,18.07
2018-02-16T23:55:25.048Z,18.04
2018-02-16T23:57:51.649Z,18.05
